Time;durP1;ratioP1;P1;durP2;ratioP2;P2;SDS_P1;SDS_P2;PMS_P1;PMS_P2;Temp;Humidity;BMP_temperature;BMP_pressure;BME280_temperature;BME280_humidity;BME280_pressure;Samples;Min_cycle;Max_cycle;Signal;HPM_P1;HPM_P2
2021/05/31 00:00:37;;;;;;;13.60;10.65;;;9.30;94.50;;;;;;2048570;29;20068;-73
2021/05/31 00:01:38;;;;;;;13.07;10.35;;;9.20;94.50;;;;;;2057007;28;20490;-73
2021/05/31 00:02:38;;;;;;;11.98;10.25;;;9.20;94.50;;;;;;2057064;28;20030;-75
2021/05/31 00:03:39;;;;;;;12.30;10.40;;;9.20;94.60;;;;;;2056898;28;20023;-74
2021/05/31 00:04:40;;;;;;;11.25;10.07;;;9.20;94.70;;;;;;2058858;28;20030;-73
2021/05/31 00:05:40;;;;;;;13.13;10.65;;;9.20;94.70;;;;;;2064901;28;20449;-74
2021/05/31 00:07:09;;;;;;;11.63;10.43;;;9.20;94.70;;;;;;2056188;28;20510;-74
2021/05/31 00:08:10;;;;;;;14.13;10.93;;;9.20;94.80;;;;;;2060480;28;20034;-73
2021/05/31 00:09:11;;;;;;;11.93;10.30;;;9.20;94.80;;;;;;2065140;28;20512;-73
2021/05/31 00:10:12;;;;;;;14.52;11.68;;;9.20;94.90;;;;;;2064905;28;20041;-74
2021/05/31 00:11:13;;;;;;;13.77;11.35;;;9.20;94.90;;;;;;2056250;28;20471;-74
2021/05/31 00:12:16;;;;;;;13.63;11.65;;;9.20;94.90;;;;;;2048450;28;20110;-74
2021/05/31 00:13:17;;;;;;;13.52;11.25;;;9.10;94.90;;;;;;2056489;28;20031;-74
2021/05/31 00:14:18;;;;;;;14.50;11.75;;;9.10;94.80;;;;;;2064252;28;20561;-74
2021/05/31 00:15:19;;;;;;;13.55;11.35;;;9.10;94.90;;;;;;2056376;28;20034;-74
2021/05/31 00:16:19;;;;;;;14.57;11.98;;;9.10;94.90;;;;;;2056452;28;20406;-74
2021/05/31 00:17:20;;;;;;;14.65;11.60;;;9.00;94.90;;;;;;2056182;28;20035;-74
2021/05/31 00:18:21;;;;;;;13.15;11.27;;;9.10;95.10;;;;;;2056426;28;20027;-74
2021/05/31 00:19:22;;;;;;;12.60;11.27;;;9.00;95.10;;;;;;2065047;28;20045;-73
2021/05/31 00:20:23;;;;;;;12.57;11.15;;;9.00;95.30;;;;;;2058495;28;20034;-75
2021/05/31 00:21:24;;;;;;;15.02;11.70;;;8.90;95.20;;;;;;2058649;28;20019;-74
2021/05/31 00:22:25;;;;;;;13.40;11.45;;;8.90;95.20;;;;;;2067467;28;20031;-74
2021/05/31 00:23:26;;;;;;;14.95;11.63;;;8.90;95.20;;;;;;2067319;28;20033;-76
2021/05/31 00:24:26;;;;;;;13.05;11.10;;;8.90;95.30;;;;;;2066344;28;20925;-74
2021/05/31 00:25:27;;;;;;;12.75;11.35;;;8.90;95.40;;;;;;2066524;28;20030;-74
2021/05/31 00:26:27;;;;;;;16.05;11.75;;;8.90;95.30;;;;;;2066832;28;20041;-74
2021/05/31 00:27:28;;;;;;;12.35;11.00;;;8.80;95.30;;;;;;2067030;28;20545;-74
2021/05/31 00:28:29;;;;;;;15.02;12.35;;;8.80;95.40;;;;;;2066670;28;20033;-74
2021/05/31 00:29:29;;;;;;;13.70;11.68;;;8.80;95.50;;;;;;2058053;28;20033;-73
2021/05/31 00:30:30;;;;;;;15.38;12.18;;;8.80;95.40;;;;;;2049836;29;20126;-74
2021/05/31 00:31:31;;;;;;;15.70;12.32;;;8.70;95.50;;;;;;2058220;28;20050;-74
2021/05/31 00:32:32;;;;;;;13.73;11.93;;;8.70;95.50;;;;;;2049946;29;20482;-75
2021/05/31 00:33:32;;;;;;;13.30;11.75;;;8.70;95.50;;;;;;2057813;28;20042;-74
2021/05/31 00:34:33;;;;;;;15.63;13.00;;;8.70;95.50;;;;;;2063886;28;20029;-73
2021/05/31 00:35:34;;;;;;;15.10;12.55;;;8.60;95.60;;;;;;2058367;28;20088;-74
2021/05/31 00:36:35;;;;;;;13.55;12.07;;;8.60;95.70;;;;;;2058527;28;20031;-75
2021/05/31 00:37:36;;;;;;;15.57;12.23;;;8.60;95.80;;;;;;2066541;28;20094;-74
2021/05/31 00:38:39;;;;;;;13.40;11.75;;;8.60;95.80;;;;;;2065921;28;20022;-75
2021/05/31 00:39:40;;;;;;;13.25;11.30;;;8.60;95.80;;;;;;2065837;28;20488;-76
2021/05/31 00:40:41;;;;;;;12.90;11.60;;;8.60;95.70;;;;;;2066478;28;20054;-74
2021/05/31 00:41:45;;;;;;;13.40;12.00;;;8.50;95.60;;;;;;2066791;28;20666;-76
2021/05/31 00:42:46;;;;;;;13.82;11.85;;;8.50;95.70;;;;;;2066566;28;20503;-77
2021/05/31 00:43:47;;;;;;;14.77;11.93;;;8.50;95.70;;;;;;2066835;28;20027;-75
2021/05/31 00:44:48;;;;;;;13.30;11.90;;;8.50;95.80;;;;;;2065780;28;20036;-74
2021/05/31 00:45:48;;;;;;;13.77;11.60;;;8.40;95.80;;;;;;2067236;28;20022;-76
2021/05/31 00:46:51;;;;;;;13.50;11.30;;;8.40;95.90;;;;;;2066530;28;20023;-74
2021/05/31 00:47:52;;;;;;;14.30;11.98;;;8.40;95.80;;;;;;2066220;28;20033;-74
2021/05/31 00:48:52;;;;;;;13.75;11.50;;;8.50;95.80;;;;;;2065657;28;20413;-74
2021/05/31 00:49:54;;;;;;;15.55;11.55;;;8.50;95.40;;;;;;2065714;28;20092;-73
2021/05/31 00:50:57;;;;;;;14.00;11.90;;;8.60;95.00;;;;;;2065832;28;20054;-75
2021/05/31 00:51:59;;;;;;;14.18;11.60;;;8.60;94.70;;;;;;2065579;28;20505;-74
2021/05/31 00:53:01;;;;;;;13.10;11.30;;;8.50;94.70;;;;;;2066101;28;20034;-73
2021/05/31 00:54:01;;;;;;;12.60;10.95;;;8.50;94.80;;;;;;2065495;28;20121;-73
2021/05/31 00:55:02;;;;;;;13.00;11.20;;;8.40;95.00;;;;;;2064891;28;20030;-74
2021/05/31 00:56:04;;;;;;;12.80;11.43;;;8.40;95.20;;;;;;2066141;28;20121;-74
2021/05/31 00:57:05;;;;;;;12.90;11.27;;;8.30;95.50;;;;;;2065473;28;20474;-76
2021/05/31 00:58:06;;;;;;;13.50;11.73;;;8.30;95.60;;;;;;2065370;28;20947;-74
2021/05/31 00:59:11;;;;;;;13.85;11.43;;;8.30;95.70;;;;;;2066098;28;20022;-76
2021/05/31 01:00:12;;;;;;;14.93;11.98;;;8.20;95.90;;;;;;2066052;28;20473;-75
2021/05/31 01:01:15;;;;;;;13.88;11.65;;;8.20;96.20;;;;;;2066244;28;20092;-74
2021/05/31 01:02:15;;;;;;;14.25;11.73;;;8.20;96.30;;;;;;2065568;28;20026;-74
2021/05/31 01:03:16;;;;;;;12.27;10.98;;;8.20;96.50;;;;;;2065427;28;20072;-74
2021/05/31 01:04:19;;;;;;;12.63;11.32;;;8.10;96.50;;;;;;2065430;28;20054;-73
2021/05/31 01:05:22;;;;;;;12.73;11.05;;;8.10;96.50;;;;;;2065652;28;20102;-75
2021/05/31 01:06:27;;;;;;;13.75;11.23;;;8.10;96.60;;;;;;2065956;28;20096;-73
2021/05/31 01:07:36;;;;;;;12.60;11.02;;;8.10;96.60;;;;;;2065801;28;20045;-74
2021/05/31 01:09:09;;;;;;;13.65;11.38;;;8.10;96.70;;;;;;2057392;28;20084;-74
2021/05/31 01:10:13;;;;;;;13.15;11.65;;;8.10;96.80;;;;;;2047741;28;20046;-74
2021/05/31 01:11:18;;;;;;;12.75;11.20;;;8.10;96.70;;;;;;2057882;28;20062;-74
2021/05/31 01:12:29;;;;;;;13.52;10.80;;;8.10;96.80;;;;;;2057881;28;20031;-73
2021/05/31 01:13:53;;;;;;;16.60;11.52;;;8.10;96.80;;;;;;2050806;28;20039;-76
2021/05/31 01:15:24;;;;;;;13.68;11.27;;;8.10;96.90;;;;;;2052028;28;20033;-74
2021/05/31 01:16:33;;;;;;;13.18;10.93;;;8.10;97.00;;;;;;2061662;28;20042;-74
2021/05/31 01:17:58;;;;;;;12.75;10.98;;;8.10;97.10;;;;;;2057391;28;20027;-75
2021/05/31 01:19:03;;;;;;;14.63;11.50;;;8.10;97.30;;;;;;2061052;28;20084;-73
2021/05/31 01:20:09;;;;;;;14.05;11.60;;;8.10;97.50;;;;;;2065900;28;20022;-73
2021/05/31 01:21:47;;;;;;;16.17;11.88;;;8.10;97.50;;;;;;2066061;28;20038;-73
2021/05/31 01:22:49;;;;;;;13.38;11.27;;;8.10;97.40;;;;;;2065902;28;20223;-73
2021/05/31 01:24:41;;;;;;;12.38;11.05;;;8.10;97.50;;;;;;2056867;28;20490;-75
2021/05/31 01:25:57;;;;;;;13.07;10.88;;;8.10;97.60;;;;;;2031905;29;20020;-74
2021/05/31 01:27:08;;;;;;;13.38;11.38;;;8.10;97.60;;;;;;2066371;28;20053;-75
2021/05/31 01:28:12;;;;;;;13.80;11.05;;;8.10;97.70;;;;;;2065676;28;20069;-74
2021/05/31 01:29:13;;;;;;;13.38;11.32;;;8.00;97.70;;;;;;2057026;28;20027;-73
2021/05/31 01:30:16;;;;;;;12.55;10.55;;;8.00;97.70;;;;;;2057367;28;20109;-73
2021/05/31 01:31:25;;;;;;;12.40;11.07;;;8.00;97.80;;;;;;2065137;28;20029;-74
2021/05/31 01:32:33;;;;;;;11.98;10.68;;;8.00;97.80;;;;;;2065735;28;20041;-74
2021/05/31 01:33:35;;;;;;;12.25;10.95;;;8.00;97.90;;;;;;2065673;28;20026;-73
2021/05/31 01:34:37;;;;;;;12.98;11.38;;;8.10;98.00;;;;;;2062968;28;20034;-74
2021/05/31 01:35:38;;;;;;;14.25;11.10;;;8.10;98.10;;;;;;2057781;28;20019;-73
2021/05/31 01:36:46;;;;;;;13.60;11.73;;;8.10;98.00;;;;;;2057848;28;20445;-74
2021/05/31 01:37:48;;;;;;;13.65;10.90;;;8.00;97.90;;;;;;2057920;28;20019;-74
2021/05/31 01:38:50;;;;;;;11.48;10.27;;;8.00;97.90;;;;;;2057792;28;20014;-74
2021/05/31 01:39:54;;;;;;;12.95;10.65;;;8.10;98.00;;;;;;2057635;28;20074;-73
2021/05/31 01:40:55;;;;;;;14.05;11.05;;;8.10;98.00;;;;;;2057750;28;20402;-75
2021/05/31 01:41:56;;;;;;;12.15;10.85;;;8.10;98.00;;;;;;2065239;28;20027;-73
2021/05/31 01:43:04;;;;;;;12.68;11.27;;;8.10;98.00;;;;;;2057185;28;20034;-75
2021/05/31 01:44:05;;;;;;;13.55;11.15;;;8.10;98.00;;;;;;2049495;28;20126;-75
2021/05/31 01:45:06;;;;;;;12.65;11.20;;;8.10;98.00;;;;;;2057492;28;20644;-74
2021/05/31 01:46:07;;;;;;;13.00;11.27;;;8.10;97.90;;;;;;2057647;28;20031;-75
2021/05/31 01:47:10;;;;;;;13.07;11.23;;;8.10;97.90;;;;;;2057842;28;20061;-73
2021/05/31 01:48:12;;;;;;;12.55;11.02;;;8.00;97.90;;;;;;2057607;28;20437;-73
2021/05/31 01:49:13;;;;;;;11.70;10.32;;;8.00;97.90;;;;;;2064990;28;20137;-73
2021/05/31 01:50:16;;;;;;;13.80;11.70;;;8.00;97.80;;;;;;2065088;28;20050;-74
2021/05/31 01:51:17;;;;;;;13.50;11.82;;;8.00;97.70;;;;;;2057670;28;20501;-74
2021/05/31 01:52:18;;;;;;;13.82;11.70;;;8.00;97.50;;;;;;2057833;28;20042;-73
2021/05/31 01:53:19;;;;;;;14.73;12.02;;;8.00;97.40;;;;;;2057539;28;20034;-73
2021/05/31 01:54:21;;;;;;;13.68;11.98;;;8.00;97.40;;;;;;2064356;28;20052;-73
2021/05/31 01:55:23;;;;;;;13.02;11.55;;;7.90;97.50;;;;;;2056837;28;20027;-73
2021/05/31 01:56:24;;;;;;;13.68;11.50;;;7.90;97.50;;;;;;2049139;28;20871;-74
2021/05/31 01:57:25;;;;;;;14.10;11.32;;;7.90;97.60;;;;;;2057606;28;20490;-74
2021/05/31 01:58:26;;;;;;;14.23;11.70;;;7.90;97.70;;;;;;2057443;28;20085;-74
2021/05/31 01:59:28;;;;;;;14.27;11.98;;;7.90;97.60;;;;;;2057452;28;20113;-73
2021/05/31 02:00:28;;;;;;;14.63;11.80;;;7.90;97.50;;;;;;2057515;28;20479;-73
2021/05/31 02:01:31;;;;;;;13.25;11.57;;;7.90;97.60;;;;;;2057384;28;20027;-73
2021/05/31 02:02:32;;;;;;;13.50;11.60;;;7.80;97.50;;;;;;2057631;28;20019;-74
2021/05/31 02:03:33;;;;;;;14.05;11.70;;;7.80;97.60;;;;;;2057604;28;20038;-73
2021/05/31 02:04:33;;;;;;;14.20;11.90;;;7.80;97.50;;;;;;2049921;28;20050;-75
2021/05/31 02:05:34;;;;;;;14.13;11.65;;;7.80;97.50;;;;;;2057321;28;20077;-74
2021/05/31 02:06:35;;;;;;;13.63;11.80;;;7.80;97.40;;;;;;2065869;28;20058;-74
2021/05/31 02:07:38;;;;;;;14.68;11.95;;;7.80;97.50;;;;;;2064744;28;20040;-73
2021/05/31 02:08:39;;;;;;;15.10;12.05;;;7.80;97.50;;;;;;2065023;28;20041;-73
2021/05/31 02:09:39;;;;;;;13.48;11.38;;;7.70;97.60;;;;;;2064827;28;20058;-73
2021/05/31 02:10:40;;;;;;;13.30;11.50;;;7.70;97.60;;;;;;2065162;28;20417;-74
2021/05/31 02:11:54;;;;;;;13.55;11.63;;;7.70;97.60;;;;;;2065640;28;20398;-73
2021/05/31 02:13:00;;;;;;;14.35;12.07;;;7.70;97.60;;;;;;2068815;28;20086;-73
2021/05/31 02:14:07;;;;;;;14.70;11.88;;;7.70;97.60;;;;;;2061292;28;20042;-74
2021/05/31 02:15:11;;;;;;;13.05;11.50;;;7.70;97.60;;;;;;2058778;28;20803;-74
2021/05/31 02:16:22;;;;;;;13.82;11.95;;;7.70;97.70;;;;;;2065394;28;20025;-74
2021/05/31 02:17:36;;;;;;;14.80;11.77;;;7.70;97.60;;;;;;2065576;28;20026;-74
2021/05/31 02:18:46;;;;;;;13.77;11.27;;;7.60;97.60;;;;;;2065428;28;20456;-74
2021/05/31 02:19:52;;;;;;;15.45;12.23;;;7.60;97.60;;;;;;2065347;28;20439;-74
2021/05/31 02:21:05;;;;;;;13.93;11.38;;;7.60;97.60;;;;;;2065657;28;20038;-75
2021/05/31 02:22:08;;;;;;;13.88;11.82;;;7.60;97.50;;;;;;2065683;28;20022;-74
2021/05/31 02:23:10;;;;;;;14.30;11.77;;;7.60;97.50;;;;;;2057025;28;20023;-74
2021/05/31 02:24:11;;;;;;;12.90;11.38;;;7.60;97.50;;;;;;2055404;28;20589;-74
2021/05/31 02:25:14;;;;;;;15.00;11.73;;;7.60;97.50;;;;;;2064626;28;20038;-73
2021/05/31 02:26:17;;;;;;;12.73;11.18;;;7.60;97.50;;;;;;2056357;28;20039;-73
2021/05/31 02:27:19;;;;;;;13.25;11.13;;;7.50;97.40;;;;;;2057183;28;20650;-74
2021/05/31 02:28:20;;;;;;;13.98;11.13;;;7.50;97.40;;;;;;2056656;28;20070;-74
2021/05/31 02:29:21;;;;;;;14.30;11.68;;;7.50;97.50;;;;;;2056731;28;20431;-74
2021/05/31 02:30:22;;;;;;;14.32;11.10;;;7.50;97.40;;;;;;2065443;28;20065;-74
2021/05/31 02:31:24;;;;;;;14.73;11.55;;;7.40;97.40;;;;;;2065370;28;20026;-75
2021/05/31 02:32:24;;;;;;;14.45;11.57;;;7.40;97.50;;;;;;2065103;28;20042;-74
2021/05/31 02:33:25;;;;;;;15.77;11.48;;;7.40;97.30;;;;;;2065122;28;20180;-74
2021/05/31 02:34:29;;;;;;;13.15;11.65;;;7.40;97.40;;;;;;2064548;28;20076;-73
2021/05/31 02:35:36;;;;;;;12.55;10.90;;;7.40;97.50;;;;;;2064834;28;20035;-74
2021/05/31 02:36:37;;;;;;;13.77;11.38;;;7.30;97.50;;;;;;2048609;28;20054;-73
2021/05/31 02:37:42;;;;;;;14.02;11.65;;;7.30;97.50;;;;;;2048901;28;20517;-74
2021/05/31 02:38:43;;;;;;;13.20;11.40;;;7.30;97.50;;;;;;2057314;28;20035;-73
2021/05/31 02:39:43;;;;;;;13.90;11.48;;;7.30;97.60;;;;;;2057318;28;20058;-74
2021/05/31 02:40:44;;;;;;;13.60;11.30;;;7.30;97.70;;;;;;2057260;28;20435;-74
2021/05/31 02:41:46;;;;;;;13.48;11.75;;;7.20;97.60;;;;;;2057170;28;20026;-75
2021/05/31 02:42:49;;;;;;;14.10;11.95;;;7.30;97.50;;;;;;2057074;28;20011;-73
2021/05/31 02:43:50;;;;;;;14.25;11.45;;;7.20;97.50;;;;;;2057199;28;20031;-73
2021/05/31 02:44:50;;;;;;;15.75;12.13;;;7.20;97.50;;;;;;2056439;28;20074;-73
2021/05/31 02:45:51;;;;;;;14.20;11.73;;;7.20;97.60;;;;;;2057144;28;20025;-73
2021/05/31 02:46:52;;;;;;;13.63;11.43;;;7.20;97.50;;;;;;2057344;28;20031;-73
2021/05/31 02:47:54;;;;;;;14.23;11.50;;;7.20;97.50;;;;;;2056567;28;20023;-73
2021/05/31 02:48:54;;;;;;;15.88;11.70;;;7.20;97.60;;;;;;2056694;28;20498;-72
2021/05/31 02:49:55;;;;;;;15.38;11.90;;;7.20;97.60;;;;;;2048617;29;20023;-72
2021/05/31 02:50:58;;;;;;;13.13;11.32;;;7.10;97.70;;;;;;2048673;29;20066;-75
2021/05/31 02:51:59;;;;;;;13.48;11.05;;;7.20;97.70;;;;;;2057194;28;20073;-72
2021/05/31 02:53:00;;;;;;;14.57;11.55;;;7.20;97.60;;;;;;2057133;28;20033;-74
2021/05/31 02:54:02;;;;;;;13.52;11.70;;;7.20;97.50;;;;;;2056565;28;20447;-73
2021/05/31 02:55:03;;;;;;;14.30;11.57;;;7.10;97.40;;;;;;2055832;28;20034;-72
2021/05/31 02:56:06;;;;;;;13.05;11.27;;;7.10;97.50;;;;;;2056554;28;20030;-74
2021/05/31 02:57:07;;;;;;;14.15;11.52;;;7.10;97.50;;;;;;2048637;29;20035;-74
2021/05/31 02:58:08;;;;;;;13.43;11.90;;;7.10;97.50;;;;;;2048538;29;20019;-73
2021/05/31 02:59:09;;;;;;;13.35;11.20;;;7.10;97.70;;;;;;2056922;28;20029;-74
2021/05/31 03:00:12;;;;;;;15.63;11.90;;;7.00;97.70;;;;;;2048448;29;20031;-74
2021/05/31 03:01:15;;;;;;;13.20;11.02;;;7.10;97.70;;;;;;2048823;28;20114;-73
2021/05/31 03:02:15;;;;;;;13.75;11.73;;;7.10;97.70;;;;;;2057066;28;20398;-73
2021/05/31 03:03:16;;;;;;;14.45;11.82;;;7.10;97.80;;;;;;2057146;28;20061;-73
2021/05/31 03:04:16;;;;;;;14.55;11.10;;;7.00;97.80;;;;;;2047905;29;20559;-74
2021/05/31 03:05:25;;;;;;;12.93;10.98;;;7.10;97.90;;;;;;2048436;28;20032;-73
2021/05/31 03:06:26;;;;;;;13.85;11.65;;;7.00;97.90;;;;;;2056880;28;20026;-73
2021/05/31 03:07:26;;;;;;;15.18;11.57;;;7.00;98.00;;;;;;2056695;28;20066;-77
2021/05/31 03:08:27;;;;;;;14.27;11.65;;;7.10;98.00;;;;;;2056990;28;20026;-75
2021/05/31 03:09:28;;;;;;;13.75;11.13;;;7.00;98.00;;;;;;2048506;29;20043;-75
2021/05/31 03:10:29;;;;;;;14.27;11.85;;;7.10;98.10;;;;;;2048522;29;20106;-76
2021/05/31 03:11:30;;;;;;;12.63;11.32;;;7.00;98.10;;;;;;2048724;28;20491;-75
2021/05/31 03:12:30;;;;;;;14.38;11.82;;;7.00;98.20;;;;;;2057000;28;20082;-77
2021/05/31 03:13:31;;;;;;;14.43;12.25;;;7.10;98.10;;;;;;2057058;28;20402;-75
2021/05/31 03:14:31;;;;;;;15.27;11.98;;;7.10;98.20;;;;;;2056301;28;20085;-72
2021/05/31 03:15:32;;;;;;;14.82;12.35;;;7.10;98.20;;;;;;2057202;28;20430;-75
2021/05/31 03:16:33;;;;;;;16.17;12.60;;;7.10;98.10;;;;;;2057110;28;20223;-74
2021/05/31 03:17:33;;;;;;;14.07;12.30;;;7.10;98.10;;;;;;2048360;29;20118;-73
2021/05/31 03:18:34;;;;;;;14.50;12.38;;;7.10;98.10;;;;;;2048398;29;20079;-72
2021/05/31 03:19:35;;;;;;;16.10;12.77;;;7.10;98.10;;;;;;2048513;29;20027;-77
2021/05/31 03:20:35;;;;;;;18.33;14.20;;;7.10;98.20;;;;;;2048533;29;20025;-75
2021/05/31 03:21:36;;;;;;;17.85;14.73;;;7.20;98.20;;;;;;2056989;28;20059;-75
2021/05/31 03:22:36;;;;;;;21.83;17.55;;;7.20;98.10;;;;;;2057075;28;20026;-72
2021/05/31 03:23:37;;;;;;;23.83;18.95;;;7.20;98.00;;;;;;2057124;28;20041;-75
2021/05/31 03:24:38;;;;;;;25.02;19.38;;;7.20;98.00;;;;;;2056302;28;20022;-73
2021/05/31 03:25:39;;;;;;;24.95;19.30;;;7.20;97.90;;;;;;2057124;28;20486;-73
2021/05/31 03:26:39;;;;;;;27.08;21.88;;;7.20;97.80;;;;;;2057115;28;20015;-73
2021/05/31 03:27:41;;;;;;;27.58;22.77;;;7.20;97.80;;;;;;2056928;28;20037;-73
2021/05/31 03:28:41;;;;;;;32.05;24.58;;;7.20;97.90;;;;;;2057167;28;20106;-73
2021/05/31 03:29:42;;;;;;;31.00;25.05;;;7.20;97.90;;;;;;2057002;28;20030;-73
2021/05/31 03:30:42;;;;;;;33.58;25.85;;;7.20;97.80;;;;;;2056609;28;20122;-73
2021/05/31 03:31:43;;;;;;;29.85;24.15;;;7.20;97.90;;;;;;2048586;29;20533;-73
2021/05/31 03:32:44;;;;;;;35.40;26.60;;;7.20;97.80;;;;;;2048552;29;20034;-74
2021/05/31 03:33:44;;;;;;;34.58;27.98;;;7.30;97.80;;;;;;2057119;28;20435;-74
2021/05/31 03:34:45;;;;;;;32.88;26.27;;;7.30;97.70;;;;;;2050779;28;20034;-74
2021/05/31 03:35:45;;;;;;;34.13;26.73;;;7.30;97.70;;;;;;2056364;28;20033;-75
2021/05/31 03:36:46;;;;;;;34.45;26.75;;;7.30;97.70;;;;;;2056621;28;20046;-74
2021/05/31 03:37:47;;;;;;;34.67;27.23;;;7.30;97.70;;;;;;2056535;28;20031;-74
2021/05/31 03:38:47;;;;;;;32.38;25.98;;;7.40;97.70;;;;;;2056515;28;20502;-75
2021/05/31 03:39:48;;;;;;;35.58;28.58;;;7.40;97.70;;;;;;2056361;28;20034;-74
2021/05/31 03:40:48;;;;;;;32.28;25.83;;;7.40;98.00;;;;;;2064826;28;20393;-73
2021/05/31 03:41:49;;;;;;;30.30;25.00;;;7.40;97.70;;;;;;2065100;28;20168;-73
2021/05/31 03:42:54;;;;;;;32.78;26.73;;;7.50;97.70;;;;;;2065133;28;20073;-75
2021/05/31 03:43:55;;;;;;;33.25;26.75;;;7.50;97.60;;;;;;2056292;28;20022;-73
2021/05/31 03:44:56;;;;;;;34.75;26.45;;;7.50;97.50;;;;;;2055595;28;20023;-73
2021/05/31 03:45:56;;;;;;;33.00;24.95;;;7.60;97.50;;;;;;2065004;28;20032;-74
2021/05/31 03:46:57;;;;;;;33.75;27.15;;;7.60;97.50;;;;;;2056402;28;20027;-74
2021/05/31 03:47:57;;;;;;;33.88;24.52;;;7.60;97.40;;;;;;2056324;28;20098;-74
2021/05/31 03:48:58;;;;;;;30.98;24.45;;;7.60;97.40;;;;;;2056623;28;20033;-75
2021/05/31 03:49:59;;;;;;;26.92;22.23;;;7.70;97.40;;;;;;2064905;28;20054;-74
2021/05/31 03:51:10;;;;;;;25.30;21.13;;;7.70;97.30;;;;;;2065243;28;20386;-73
2021/05/31 03:52:10;;;;;;;26.52;20.67;;;7.70;97.30;;;;;;2056307;28;20406;-74
2021/05/31 03:53:11;;;;;;;23.30;18.83;;;7.80;97.20;;;;;;2056280;28;20023;-74
2021/05/31 03:54:13;;;;;;;21.48;17.85;;;7.80;97.10;;;;;;2064201;28;20153;-74
2021/05/31 03:55:13;;;;;;;22.63;17.65;;;7.90;97.10;;;;;;2057335;28;20070;-74
2021/05/31 03:56:14;;;;;;;23.15;17.38;;;7.90;97.00;;;;;;2057817;28;20027;-74
2021/05/31 03:57:15;;;;;;;18.95;15.63;;;7.90;96.90;;;;;;2066561;28;20022;-74
2021/05/31 03:58:16;;;;;;;19.90;15.77;;;8.00;96.80;;;;;;2066645;28;20033;-74
2021/05/31 03:59:18;;;;;;;18.83;14.85;;;8.00;96.90;;;;;;2066394;28;20030;-74
2021/05/31 04:00:19;;;;;;;17.23;14.25;;;8.00;96.80;;;;;;2065944;28;20022;-74
2021/05/31 04:01:19;;;;;;;16.00;13.27;;;8.10;96.70;;;;;;2066278;28;20030;-74
2021/05/31 04:02:20;;;;;;;16.85;13.43;;;8.20;96.50;;;;;;2066439;28;20046;-74
2021/05/31 04:03:21;;;;;;;15.40;13.65;;;8.30;96.50;;;;;;2066386;28;20553;-74
2021/05/31 04:04:22;;;;;;;14.30;12.32;;;8.40;96.40;;;;;;2056946;28;20041;-74
2021/05/31 04:05:31;;;;;;;16.02;12.73;;;8.50;96.20;;;;;;2058366;28;20035;-74
2021/05/31 04:11:37;;;;;;;12.40;9.07;;;10.80;91.50;;;;;;2057727;28;20031;-75
2021/05/31 04:12:38;;;;;;;10.43;8.85;;;11.40;89.60;;;;;;2049666;29;20058;-74
2021/05/31 04:13:38;;;;;;;10.75;8.55;;;11.70;87.00;;;;;;2057525;28;20042;-74
2021/05/31 04:14:39;;;;;;;11.73;9.30;;;12.10;83.80;;;;;;2056499;28;20514;-73
2021/05/31 04:15:40;;;;;;;12.93;9.65;;;12.30;81.40;;;;;;2057993;28;20015;-76
2021/05/31 04:16:49;;;;;;;11.23;8.77;;;12.60;80.20;;;;;;2057673;28;20027;-73
2021/05/31 04:17:50;;;;;;;10.23;8.48;;;13.00;78.20;;;;;;2058774;28;20034;-73
2021/05/31 04:18:51;;;;;;;9.00;7.97;;;13.30;75.60;;;;;;2065927;28;20027;-74
2021/05/31 04:19:52;;;;;;;9.27;7.75;;;13.60;73.80;;;;;;2057713;28;20061;-74
2021/05/31 04:20:52;;;;;;;8.30;7.40;;;13.90;72.90;;;;;;2057784;28;20059;-74
2021/05/31 04:21:54;;;;;;;8.82;7.93;;;14.10;71.10;;;;;;2065758;28;20142;-74
2021/05/31 04:22:54;;;;;;;8.32;7.53;;;14.40;69.50;;;;;;2057798;28;20031;-74
2021/05/31 04:23:55;;;;;;;7.93;7.13;;;14.60;68.60;;;;;;2049641;29;20030;-74
2021/05/31 04:24:56;;;;;;;8.65;7.45;;;14.80;67.50;;;;;;2040899;29;20103;-74
2021/05/31 04:25:56;;;;;;;9.80;7.88;;;15.00;66.70;;;;;;2049859;29;20498;-75
2021/05/31 04:26:57;;;;;;;8.05;7.28;;;15.00;65.20;;;;;;2066518;28;20023;-74
2021/05/31 04:27:58;;;;;;;8.15;7.22;;;15.10;64.90;;;;;;2066295;28;20030;-75
2021/05/31 04:28:59;;;;;;;8.05;7.15;;;15.20;63.80;;;;;;2066428;28;20042;-74
2021/05/31 04:30:00;;;;;;;9.45;7.35;;;15.20;63.50;;;;;;2066479;28;20019;-74
2021/05/31 04:31:00;;;;;;;8.52;7.05;;;15.30;62.90;;;;;;2057773;28;20055;-74
2021/05/31 04:32:02;;;;;;;9.77;7.65;;;15.40;62.70;;;;;;2057853;28;20415;-74
2021/05/31 04:33:03;;;;;;;11.13;7.40;;;15.40;62.20;;;;;;2066407;28;20062;-74
2021/05/31 04:34:08;;;;;;;7.95;7.15;;;15.40;62.20;;;;;;2066303;28;20037;-74
2021/05/31 04:35:08;;;;;;;7.55;6.78;;;15.50;61.90;;;;;;2071197;28;20042;-74
2021/05/31 04:36:09;;;;;;;7.65;6.32;;;15.70;61.40;;;;;;2072971;28;20018;-75
2021/05/31 04:37:10;;;;;;;8.85;7.05;;;15.70;60.80;;;;;;2071654;28;20518;-75
2021/05/31 04:38:11;;;;;;;11.07;8.05;;;15.80;60.10;;;;;;2070176;28;20047;-75
2021/05/31 04:39:12;;;;;;;9.35;7.85;;;15.80;59.10;;;;;;2069057;28;20093;-74
2021/05/31 04:40:12;;;;;;;8.13;7.32;;;15.70;59.70;;;;;;2060616;28;20078;-75
2021/05/31 04:41:13;;;;;;;8.13;7.20;;;15.70;59.80;;;;;;2066562;28;20034;-74
2021/05/31 04:42:14;;;;;;;7.40;6.60;;;15.80;59.60;;;;;;2066764;28;20046;-74
2021/05/31 04:43:14;;;;;;;7.95;6.88;;;15.90;59.60;;;;;;2066483;28;20478;-74
2021/05/31 04:44:15;;;;;;;7.93;7.10;;;15.90;59.30;;;;;;2065837;28;20049;-73
2021/05/31 04:45:16;;;;;;;9.43;6.90;;;15.90;59.30;;;;;;2065515;28;20042;-74
2021/05/31 04:46:16;;;;;;;7.80;7.00;;;15.90;59.30;;;;;;2057597;28;20027;-75
2021/05/31 04:47:17;;;;;;;9.25;7.53;;;15.90;58.90;;;;;;2065839;28;20412;-74
2021/05/31 04:48:18;;;;;;;8.40;7.47;;;15.80;58.70;;;;;;2066141;28;20176;-74
2021/05/31 04:49:18;;;;;;;9.68;7.43;;;15.70;59.00;;;;;;2066103;28;20035;-74
2021/05/31 04:50:19;;;;;;;8.98;7.18;;;15.60;59.10;;;;;;2065961;28;20023;-74
2021/05/31 04:51:22;;;;;;;9.30;7.18;;;15.70;59.30;;;;;;2066118;28;20022;-74
2021/05/31 04:52:22;;;;;;;10.63;8.20;;;15.80;59.20;;;;;;2066141;28;20453;-73
2021/05/31 04:53:26;;;;;;;8.30;7.45;;;15.90;58.60;;;;;;2065944;28;20045;-74
2021/05/31 04:54:27;;;;;;;8.38;7.57;;;15.70;58.90;;;;;;2065125;28;20552;-74
2021/05/31 04:55:28;;;;;;;8.55;7.30;;;15.70;58.70;;;;;;2065464;28;20081;-73
2021/05/31 04:56:29;;;;;;;8.05;7.25;;;15.60;59.20;;;;;;2065558;28;20038;-75
2021/05/31 04:57:30;;;;;;;7.75;6.88;;;15.70;59.00;;;;;;2066055;28;20019;-73
2021/05/31 04:58:30;;;;;;;7.10;6.38;;;15.90;58.90;;;;;;2066315;28;20076;-73
2021/05/31 04:59:31;;;;;;;7.38;6.53;;;16.10;58.60;;;;;;2065407;28;20026;-73
2021/05/31 05:00:32;;;;;;;8.02;6.95;;;16.20;58.00;;;;;;2065407;28;20414;-72
2021/05/31 05:01:34;;;;;;;7.40;6.70;;;16.30;57.30;;;;;;2066148;28;20030;-73
2021/05/31 05:02:34;;;;;;;8.23;6.85;;;16.30;57.10;;;;;;2065335;28;20528;-75
2021/05/31 05:03:35;;;;;;;7.10;6.40;;;16.30;57.10;;;;;;2065336;28;20038;-74
2021/05/31 05:04:39;;;;;;;8.98;6.85;;;16.40;57.00;;;;;;2060172;28;20030;-73
2021/05/31 05:05:39;;;;;;;8.38;6.85;;;16.60;56.70;;;;;;2058096;28;20073;-75
2021/05/31 05:06:41;;;;;;;9.23;7.15;;;16.50;56.60;;;;;;2058047;28;20031;-73
2021/05/31 05:07:45;;;;;;;8.10;7.30;;;16.60;56.30;;;;;;2049514;29;20049;-75
2021/05/31 05:08:46;;;;;;;7.70;7.00;;;16.60;56.10;;;;;;2049886;28;20023;-74
2021/05/31 05:09:46;;;;;;;8.00;6.75;;;16.70;56.10;;;;;;2057914;28;20027;-73
2021/05/31 05:10:47;;;;;;;7.45;6.65;;;16.60;56.10;;;;;;2057942;28;20513;-74
2021/05/31 05:11:47;;;;;;;6.82;6.13;;;16.70;56.00;;;;;;2057842;28;20116;-74
2021/05/31 05:12:52;;;;;;;6.70;6.10;;;16.90;56.00;;;;;;2057839;28;20034;-74
2021/05/31 05:13:53;;;;;;;6.78;6.10;;;17.10;55.50;;;;;;2058006;28;20445;-74
2021/05/31 05:14:54;;;;;;;7.35;6.60;;;17.20;54.90;;;;;;2057346;28;20394;-74
2021/05/31 05:15:54;;;;;;;8.20;6.60;;;17.30;54.50;;;;;;2057940;28;20089;-74
2021/05/31 05:16:55;;;;;;;7.80;6.20;;;17.30;54.10;;;;;;2057969;28;20019;-74
2021/05/31 05:17:56;;;;;;;7.05;6.13;;;17.30;54.00;;;;;;2057772;28;20037;-76
2021/05/31 05:18:57;;;;;;;7.40;6.20;;;17.30;54.00;;;;;;2058042;28;20039;-74
2021/05/31 05:19:57;;;;;;;6.80;6.10;;;17.50;53.70;;;;;;2057991;28;20035;-73
2021/05/31 05:20:59;;;;;;;7.32;6.60;;;17.60;53.70;;;;;;2057706;28;20114;-74
2021/05/31 05:21:59;;;;;;;10.80;6.70;;;17.70;53.50;;;;;;2057878;28;20023;-73
2021/05/31 05:23:01;;;;;;;6.68;6.07;;;17.70;53.20;;;;;;2057689;28;20030;-74
2021/05/31 05:24:01;;;;;;;7.60;6.55;;;17.70;53.30;;;;;;2057858;28;20248;-75
2021/05/31 05:25:02;;;;;;;7.38;6.32;;;17.90;53.00;;;;;;2057204;28;20027;-75
2021/05/31 05:26:03;;;;;;;8.25;7.18;;;18.00;52.70;;;;;;2057873;28;20023;-75
2021/05/31 05:27:07;;;;;;;11.73;7.28;;;18.20;52.00;;;;;;2049172;29;20055;-75